Vue régionale

METAR et TAF

Lundi 10 décembre 2018 à 19h35

Visibilités horizontales observées à différents aéroports. Les observations (METAR) et prévisions aéronautiques (TAF) complètes sont disponibles en cliquant sur l’icône correspondante.

  • Luxemburg (ELLX)

    Taf: TAF ELLX 101700Z 1018/1124 30010KT 9999 SCT020 BKN030 TEMPO 1018/1102 30010G22KT TEMPO 1102/1109 4500 BR SCT002 BKN004 BECMG 1110/1112 SCT025=

    Metar: METAR ELLX 101820Z 29009KT 270V330 CAVOK 04/01 Q1023 NOSIG=

  • Spangdahlem (ETAD)

    Taf: TAF ETAD 101300Z 1013/1119 29009KT 9999 SCT025 BKN045 620254 QNH3014INS TEMPO 1013/1016 28010G18KT BKN025 BECMG 1015/1016 28009KT 9999 SCT020 QNH3017INS BECMG 1101/1102 30006KT 8000 BR BKN015 620404 QNH3021INS BECMG 1109/1110 29006KT 9999 NSW BKN020 620208 QNH3024INS BECMG 1112/1113 31009KT 9999 SCT023 620259 QNH3020INS TX07/1112Z TN01/1102Z=

    Metar: nil

  • Metz/Nancy (LFJL)

    Taf: TAF LFJL 101700Z 1018/1118 28006KT 9999 SCT025 PROB40 TEMPO 1018/1021 28010G20KT -SHRA BKN013 TEMPO 1100/1111 4000 BR PROB40 TEMPO 1106/1110 0800 FG BKN004 BECMG 1110/1112 BKN010=

    Metar: nil

  • Saarbrücken/Intl (EDDR)

    Taf: TAF EDDR 101700Z 1018/1118 27008KT 9999 SCT020=

    Metar: nil

  • Hahn (EDFH)

    Taf: TAF EDFH 101700Z 1018/1118 29012KT 9999 SCT020 PROB30 TEMPO 1018/1020 28015G25KT 4000 SHRA BKN008 BKN015TCU TEMPO 1020/1110 BKN012 PROB30 TEMPO 1022/1109 BKN008 BECMG 1113/1115 28007KT=

    Metar: nil

  • Ramstein (ETAR)

    Taf: TAF ETAR 101805Z 1018/1124 28009KT 9999 SCT020 SCT035 BKN040 620404 QNH3018INS BECMG 1105/1106 28009KT 9999 BKN030 620309 QNH3023INS BECMG 1112/1113 28009KT 9999 SCT030 QNH3021INS BECMG 1123/1124 28006KT 6000 BR FEW035 QNH3017INS TX06/1018Z TN01/1117Z=

    Metar: nil

  • Nancy/Ochey (LFSO)

    Taf: TAF LFSO 101400Z 1015/1115 29015KT 9999 BKN015 BKN030 TEMPO 1018/1101 30005KT BKN012 TEMPO 1101/1109 26005KT OVC006 PROB40 1107/1109 1000 BCFG OVC003 BECMG 1111/1113 35005KT SCT015=

    Metar: nil

  • Liège Bierset (EBLG)

    Taf: TAF EBLG 101710Z 1018/1124 28006KT 9999 SCT020 BECMG 1121/1123 3000 BR=

    Metar: nil

  • Saint-Dizier (LFSI)

    Taf: TAF LFSI 101400Z 1015/1115 30008KT 9999 SCT020 BKN040 BECMG 1018/1020 BKN010 TEMPO 1020/1109 4000 BR BKN005=

    Metar: nil

  • Maastricht/Zuid Limburg (EHBK)

    Taf: TAF EHBK 101702Z 1018/1124 27008KT 9999 SCT040 PROB30 TEMPO 1109/1116 6000 -SHRA -RA FEW025TCU BKN040 BECMG 1121/1124 6000 PROB30 1121/1124 2500 MIFG BR=

    Metar: nil

  • Köln/Köln-Bonn (EDDK)

    Taf: TAF EDDK 101700Z 1018/1124 28010KT 9999 SCT020 PROB30 TEMPO 1109/1115 SHRA BKN014TCU BECMG 1115/1118 30005KT=

    Metar: METAR EDDK 101820Z 30011KT 9999 FEW037 04/01 Q1022 NOSIG=

  • Charleroi (EBCI)

    Taf: TAF EBCI 101710Z 1018/1124 28006KT 9999 SCT020 BECMG 1118/1120 3000 BR=

    Metar: nil

  • Wiesbaden (ETOU)

    Taf: TAF ETOU 101200Z 1012/1118 29012KT 9999 BKN025 QNH3014INS BECMG 1015/1016 29009KT 9999 SCT025 QNH3013INS BECMG 1101/1102 30012KT 9999 SCT015 BKN020 QNH3015INS TX08/1111Z TN02/1107Z=

    Metar: nil

  • Karlsruhe/Baden-Baden (EDSB)

    Taf: TAF EDSB 101700Z 1018/1118 23006KT 9999 SCT030 PROB30 TEMPO 1018/1020 28015G25KT SHRASN BKN020TCU=

    Metar: nil

  • Chalons/Vatry (LFOK)

    Taf: TAF LFOK 101700Z 1018/1118 28008KT 9999 BKN030 TEMPO 1018/1020 4000 SHRA BKN015TCU BECMG 1020/1023 3000 BR PROB40 1023/1109 0300 FG VV/// BECMG 1109/1112 7000 NSW=

    Metar: nil

  • Brüssel (EBBR)

    Taf: TAF EBBR 101710Z 1018/1124 28006KT 9999 SCT020=

    Metar: METAR EBBR 101820Z 31007KT 9999 FEW020 BKN032 06/03 Q1025 NOSIG=

  • Düsseldorf (EDDL)

    Taf: TAF EDDL 101700Z 1018/1124 27010KT 9999 SCT020 BECMG 1115/1118 30005KT=

    Metar: nil

  • Luxeuil (LFSX)

    Taf: TAF LFSX 101400Z 1015/1115 29008KT 9999 SCT015 BKN030 TEMPO 1015/1018 4500 -SHRA SCT012 BKN020TCU TEMPO 1018/1108 BKN008=

    Metar: nil

  • Eindhoven (EHEH)

    Taf: TAF EHEH 101726Z 1018/1124 27007KT 9999 FEW025 SCT045 BECMG 1118/1121 VRB03KT=

    Metar: nil

  • Niederrhein (EDLV)

    Taf: TAF EDLV 101700Z 1018/1118 28008KT CAVOK BECMG 1114/1117 28003KT=

    Metar: nil

  • Dortmund/Wickede (EDLW)

    Taf: TAF EDLW 101700Z 1018/1118 27010KT 9999 SCT025 PROB40 TEMPO 1102/1108 BKN010 BECMG 1112/1115 30005KT=

    Metar: nil

  • Stuttgart/Echterdingen (EDDS)

    Taf: TAF EDDS 101700Z 1018/1118 25008KT 9999 SCT040 PROB30 TEMPO 1018/1021 29015G25KT SHRASN BKN020TCU PROB30 TEMPO 1110/1118 4000 -SHSNRA BKN012 BKN020CB=

    Metar: METAR EDDS 101820Z 26011KT 9999 FEW025 SCT044 04/01 Q1021 NOSIG=

  • Basel-Mühlhausen (LFSB)

    Taf: TAF LFSB 101700Z 1018/1118 27010KT 9999 FEW025 SCT050 PROB30 TEMPO 1018/1103 -SHRA FEW020TCU PROB30 TEMPO 1023/1103 BKN012=

    Metar: METAR LFSB 101800Z 25010KT 9999 FEW030 SCT046 05/03 Q1025 NOSIG=

  • Lille (LFQQ)

    Taf: TAF LFQQ 101700Z 1018/1124 28007KT 9999 BKN030 PROB30 TEMPO 1018/1020 4000 SHRA BKN020TCU BECMG 1020/1023 3000 BR PROB40 1023/1109 0400 FG VV/// BECMG 1109/1112 7000 NSW BECMG 1117/1119 3000 BR PROB40 1119/1124 0300 FG VV///=

    Metar: nil

  • Paris/Charles de Gaulle (LFPG)

    Taf: TAF AMD LFPG 101724Z 1018/1124 26008KT 9999 BKN040 TX07/1018Z TN02/1123Z BECMG 1023/1101 3000 BR SCT020 BKN030 PROB30 TEMPO 1103/1108 1200 BCFG SCT003 TEMPO 1108/1111 VRB03KT PROB30 TEMPO 1109/1111 BKN002 BECMG 1111/1113 09010KT 9999 NSW BKN012 BECMG 1113/1115 BKN020 BECMG 1116/1118 BKN008 BECMG 1121/1123 BKN002=

    Metar: nil

  • Paderborn/Lippstadt (EDLP)

    Taf: TAF EDLP 101700Z 1018/1118 27010KT 9999 SCT030 PROB30 TEMPO 1018/1115 4500 -SHRASN BKN013TCU TEMPO 1100/1112 BKN007 BECMG 1114/1117 28005KT=

    Metar: nil

  • Paris/Le Bourget (LFPB)

    Taf: TAF AMD LFPB 101729Z 1018/1118 26008KT 9999 BKN040 BECMG 1023/1101 3000 BR SCT020 BKN030 PROB30 TEMPO 1103/1108 1200 BCFG SCT003 TEMPO 1108/1111 VRB03KT PROB30 TEMPO 1109/1111 BKN002 BECMG 1111/1113 09010KT 9999 NSW BKN012 BECMG 1113/1115 BKN020 BECMG 1116/1118 BKN008=

    Metar: METAR LFPB 101800Z AUTO 27004KT 240V310 CAVOK 08/04 Q1028 NOSIG=

  • Rotterdam (EHRD)

    Taf: TAF EHRD 101700Z 1018/1124 31014KT 9999 SCT030 PROB30 TEMPO 1018/1106 7000 -SHRA FEW025TCU BECMG 1100/1103 33009KT BECMG 1115/1118 VRB03KT=

    Metar: nil

  • Zürich/Kloten (LSZH)

    Taf: TAF LSZH 101725Z 1018/1124 25005KT 9999 FEW010 SCT030 BKN050 TX04/1115Z TN00/1106Z PROB40 TEMPO 1019/1103 SHRA PROB30 TEMPO 1021/1108 4000 SHRASN BKN014=

    Metar: METAR LSZH 101820Z 23005KT 200V260 9999 VCSH FEW012 BKN050 04/02 Q1024 NOSIG=

  • Oostende/Intl (EBOS)

    Taf: TAF EBOS 101710Z 1018/1124 33012KT 9999 SCT020=

    Metar: nil

  • Paris/Orly (LFPO)

    Taf: TAF LFPO 101700Z 1018/1124 30007KT 9999 SCT030 BECMG 1100/1103 VRB03KT 3000 BR SCT003 TEMPO 1103/1115 1200 BR BKN003 PROB30 TEMPO 1104/1112 0800 BCFG VV/// BECMG 1112/1115 4000 BR BKN006=

    Metar: nil

  • Beauvais (LFOB)

    Taf: TAF LFOB 101700Z 1018/1118 29005KT 9999 BKN030 BECMG 1020/1023 3000 BR PROB40 1023/1109 0300 FG VV/// BECMG 1109/1112 7000 NSW=

    Metar: nil

  • Münster/Intl (EDDG)

    Taf: TAF EDDG 101700Z 1018/1118 27010KT 9999 SCT020 BKN030 PROB30 TEMPO 1018/1021 SHRA BKN014TCU BECMG 1113/1116 31005KT=

    Metar: METAR EDDG 101820Z 27014KT 9999 -SHRA FEW020CB BKN044 04/02 Q1019 NOSIG=

  • Illesheim (ETIK)

    Taf: TAF ETIK 101402Z 1014/1120 28010G15KT 9999 BKN024 OVC030 620303 QNH3011INS TEMPO 1014/1019 5000 -RASN OVC015 BECMG 1018/1019 29012KT 9999 BKN015 620154 QNH3010INS TEMPO 1019/1021 5000 -RASN OVC015 BECMG 1106/1107 28013KT 5000 SHSN BKN015 620158 QNH3011INS TX05/1113Z TN01/1023Z=

    Metar: nil

  • Duebendorf (LSMD)

    Taf: TAF LSMD 101625Z 1017/1123 22058KT 9999 SCT020 BKN030 PROB40 TEMPO 1017/1107 SHRA PROB30 TEMPO 1021/1110 4000 SHRASN BKN014=

    Metar: nil

  • Villacoublay (LFPV)

    Taf: TAF LFPV 101400Z 1015/1115 30008KT 9999 BKN025 TEMPO 1104/1108 3000 BR SCT003=

    Metar: nil

  • Payerne (LSMP)

    Taf: TAF LSMP 101625Z 1017/1123 22006KT 9999 FEW010 SCT020 BKN030=

    Metar: nil

  • Amsterdam/Schipol (EHAM)

    Taf: TAF EHAM 101700Z 1018/1124 31014KT 9999 SCT030 PROB30 TEMPO 1018/1106 7000 -SHRA FEW025TCU BECMG 1100/1103 33009KT BECMG 1115/1118 VRB03KT=

    Metar: METAR EHAM 101755Z 31011KT 280V340 9999 FEW025CB 06/02 Q1023 NOSIG=

  • Emmen (LSME)

    Taf: TAF LSME 101625Z 1017/1123 25008KT 9999 SCT020 BKN040 OVC060 PROB40 TEMPO 1017/1107 SHRA PROB30 TEMPO 1021/1109 4000 SHRASN SCT008 BKN014=

    Metar: nil

  • Friedrichshafen (EDNY)

    Taf: TAF EDNY 101700Z 1018/1118 25005KT 9999 SCT012 BKN025 TEMPO 1018/1102 30015G25KT 3000 SHSN BKN008TCU PROB30 TEMPO 1109/1116 3000 -SHSN SCT020TCU=

    Metar: nil

  • Alpnach (LSMA)

    Taf: TAF LSMA 101625Z 1017/1123 23008KT 9999 FEW030 SCT040 OVC070 TEMPO 1017/1115 SHRA PROB40 TEMPO 1022/1116 3000 SHSNRA SCT008 BKN012=

    Metar: nil

  • Meiringen (LSMM)

    Taf: TAF LSMM 101625Z 1017/1123 28006KT 8000 FEW025 BKN040 TEMPO 1017/1117 RA PROB40 TEMPO 1017/1116 3000 SHSNRA SCT008 BKN014 PROB30 TEMPO 1102/1107 2500 SHSN BKN008=

    Metar: nil

  • Nürnberg (EDDN)

    Taf: TAF EDDN 101700Z 1018/1118 26012KT 9999 SCT012 BKN025 TEMPO 1018/1020 30020G30KT 2000 SHSNRA BKN012CB PROB30 TEMPO 1103/1118 30015G25KT 2000 SHSN BKN010TCU=

    Metar: METAR EDDN 101820Z 29006KT 9999 FEW008 SCT015 BKN040 01/00 Q1019 R28/29//94 NOSIG=

  • Rouen (LFOP)

    Taf: TAF LFOP 101700Z 1018/1118 29007KT 9999 BKN030 BECMG 1020/1023 3000 BR PROB40 1023/1108 0300 FG VV/// BECMG 1108/1111 7000 NSW=

    Metar: nil

  • Evreux (LFOE)

    Taf: TAF LFOE 101400Z 1015/1115 28010G20KT 9999 SCT025 SCT040 PROB30 TEMPO 1015/1016 4000 -SHRA BKN025 BECMG 1020/1022 VRB03KT 3000 BR TEMPO 1023/1108 0500 BCFG BKN001 BECMG 1108/1110 10005KT 9999 NSW BKN005 BECMG 1110/1112 BKN010=

    Metar: nil

  • Erfurt/Bindersleben (EDDE)

    Taf: TAF EDDE 101700Z 1018/1118 28015G25KT 9999 BKN035 PROB30 TEMPO 1018/1109 3500 -SHRASN BKN012CB BECMG 1113/1115 30010KT=

    Metar: nil